createdAt,value
2019-02-14T00:05:16.482Z,23.23
2019-02-14T00:10:31.727Z,13.73
2019-02-14T00:15:42.708Z,18.00
2019-02-14T00:18:12.258Z,22.53
2019-02-14T00:20:41.833Z,16.23
2019-02-14T00:23:30.613Z,15.40
2019-02-14T00:26:00.106Z,15.67
2019-02-14T00:28:29.576Z,23.00
2019-02-14T00:30:59.077Z,17.40
2019-02-14T00:33:28.586Z,18.73
2019-02-14T00:35:58.113Z,16.63
2019-02-14T00:38:27.592Z,17.97
2019-02-14T00:40:57.094Z,24.67
2019-02-14T00:43:26.591Z,19.27
2019-02-14T00:45:56.116Z,21.70
2019-02-14T00:48:25.594Z,23.83
2019-02-14T00:51:16.017Z,22.47
2019-02-14T00:53:45.601Z,19.73
2019-02-14T00:56:15.293Z,22.17
2019-02-14T00:58:44.757Z,26.33
2019-02-14T01:01:14.292Z,21.57
2019-02-14T01:03:43.845Z,23.55
2019-02-14T01:06:13.386Z,26.90
2019-02-14T01:11:56.182Z,21.90
2019-02-14T01:14:25.712Z,27.33
2019-02-14T01:16:55.231Z,26.23
2019-02-14T01:19:24.739Z,23.90
2019-02-14T01:21:54.247Z,24.30
2019-02-14T01:24:23.758Z,23.87
2019-02-14T01:26:53.266Z,22.33
2019-02-14T01:29:22.802Z,22.42
2019-02-14T01:32:11.345Z,21.93
2019-02-14T01:35:01.707Z,22.57
2019-02-14T01:37:44.564Z,24.83
2019-02-14T01:40:14.047Z,30.57
2019-02-14T01:42:43.575Z,17.97
2019-02-14T01:45:32.184Z,19.15
2019-02-14T01:48:01.931Z,19.10
2019-02-14T01:50:31.445Z,22.07
2019-02-14T01:53:00.906Z,17.30
2019-02-14T01:55:30.425Z,32.90
2019-02-14T01:57:59.932Z,23.60
2019-02-14T02:00:29.515Z,18.17
2019-02-14T02:02:59.000Z,18.93
2019-02-14T02:05:28.496Z,22.58
2019-02-14T02:07:58.062Z,20.40
2019-02-14T02:10:27.813Z,17.53
2019-02-14T02:12:57.438Z,21.47
2019-02-14T02:15:26.950Z,16.57
2019-02-14T02:18:15.722Z,22.90
2019-02-14T02:20:45.273Z,23.33
2019-02-14T02:23:14.960Z,21.27
2019-02-14T02:25:44.478Z,19.83
2019-02-14T02:28:13.974Z,20.75
2019-02-14T02:30:43.641Z,23.95
2019-02-14T02:33:13.144Z,20.40
2019-02-14T02:35:42.647Z,20.07
2019-02-14T02:38:12.160Z,20.00
2019-02-14T02:40:41.763Z,27.23
2019-02-14T02:43:11.288Z,20.43
2019-02-14T02:45:40.875Z,17.92
2019-02-14T02:48:10.367Z,23.73
2019-02-14T02:50:39.849Z,23.57
2019-02-14T02:53:21.011Z,24.40
2019-02-14T02:55:50.577Z,23.73
2019-02-14T02:58:20.044Z,19.73
2019-02-14T03:00:49.644Z,23.07
2019-02-14T03:03:19.132Z,21.70
2019-02-14T03:05:48.617Z,22.03
2019-02-14T03:08:18.123Z,16.80
2019-02-14T03:10:47.656Z,20.50
2019-02-14T03:13:17.160Z,25.60
2019-02-14T03:15:48.260Z,19.80
2019-02-14T03:18:17.756Z,22.15
2019-02-14T03:20:47.247Z,21.00
2019-02-14T03:23:16.767Z,22.93
2019-02-14T03:25:46.296Z,19.17
2019-02-14T03:28:15.994Z,19.67
2019-02-14T03:30:45.482Z,20.23
2019-02-14T03:33:14.960Z,29.03
2019-02-14T03:35:44.545Z,22.50
2019-02-14T03:38:14.062Z,31.90
2019-02-14T03:40:43.595Z,23.03
2019-02-14T03:43:13.077Z,24.57
2019-02-14T03:45:42.586Z,26.03
2019-02-14T03:48:12.042Z,26.85
2019-02-14T03:50:41.533Z,23.73
2019-02-14T03:53:11.018Z,26.40
2019-02-14T03:55:40.521Z,20.52
2019-02-14T03:58:10.045Z,22.95
2019-02-14T04:00:58.865Z,21.10
2019-02-14T04:03:29.311Z,22.83
2019-02-14T04:05:58.802Z,19.80
2019-02-14T04:08:28.287Z,26.03
2019-02-14T04:10:57.921Z,25.50
2019-02-14T04:13:27.402Z,20.90
2019-02-14T04:15:57.032Z,22.75
2019-02-14T04:18:26.540Z,29.77
2019-02-14T04:20:56.060Z,25.12
2019-02-14T04:23:25.538Z,24.83
2019-02-14T04:25:55.050Z,16.87
2019-02-14T04:28:24.568Z,23.03
2019-02-14T04:30:54.077Z,23.13
2019-02-14T04:33:23.562Z,28.50
2019-02-14T04:35:53.091Z,18.40
2019-02-14T04:38:42.191Z,25.10
2019-02-14T04:41:11.691Z,23.90
2019-02-14T04:43:41.201Z,20.70
2019-02-14T04:46:10.710Z,27.10
2019-02-14T04:48:40.208Z,24.43
2019-02-14T04:51:09.887Z,20.83
2019-02-14T04:53:39.368Z,24.55
2019-02-14T04:56:08.903Z,27.70
2019-02-14T04:58:38.393Z,21.50
2019-02-14T05:01:07.895Z,24.13
2019-02-14T05:03:37.385Z,19.60
2019-02-14T05:06:26.187Z,26.23
2019-02-14T05:09:15.049Z,23.57
2019-02-14T05:11:45.002Z,21.47
2019-02-14T05:14:14.492Z,21.63
2019-02-14T05:16:44.039Z,18.50
2019-02-14T05:19:13.629Z,22.40
2019-02-14T05:21:43.169Z,21.03
2019-02-14T05:24:31.779Z,23.62
2019-02-14T05:29:55.961Z,23.00
2019-02-14T05:32:25.977Z,28.98
2019-02-14T05:34:55.967Z,24.72
2019-02-14T05:37:45.178Z,27.80
2019-02-14T05:40:34.021Z,25.90
2019-02-14T05:43:15.844Z,24.63
2019-02-14T05:45:45.330Z,29.00
2019-02-14T05:48:14.875Z,22.47
2019-02-14T05:50:46.074Z,30.30
2019-02-14T05:53:15.584Z,23.90
2019-02-14T05:55:45.122Z,24.30
2019-02-14T05:58:14.645Z,25.97
2019-02-14T06:00:44.129Z,20.60
2019-02-14T06:03:13.627Z,19.10
2019-02-14T06:05:43.127Z,18.00
2019-02-14T06:08:12.667Z,20.93
2019-02-14T06:10:42.192Z,20.03
2019-02-14T06:13:11.694Z,27.00
2019-02-14T06:16:00.270Z,29.97
2019-02-14T06:18:35.580Z,22.57
2019-02-14T06:21:05.071Z,23.60
2019-02-14T06:23:34.563Z,25.70
2019-02-14T06:28:52.614Z,22.05
2019-02-14T06:31:22.135Z,15.13
2019-02-14T06:36:52.234Z,22.40
2019-02-14T06:39:27.502Z,23.07
2019-02-14T06:41:57.084Z,17.53
2019-02-14T06:44:26.698Z,15.60
2019-02-14T06:46:58.143Z,18.95
2019-02-14T06:49:27.646Z,17.27
2019-02-14T06:51:57.121Z,20.83
2019-02-14T06:54:26.622Z,24.20
2019-02-14T06:56:56.078Z,20.50
2019-02-14T06:59:37.897Z,22.48
2019-02-14T07:02:07.400Z,27.03
2019-02-14T07:04:36.846Z,19.87
2019-02-14T07:07:06.358Z,23.73
2019-02-14T07:09:35.865Z,19.27
2019-02-14T07:12:05.451Z,19.30
2019-02-14T07:14:34.941Z,20.55
2019-02-14T07:17:04.443Z,21.77
2019-02-14T07:19:33.939Z,17.85
2019-02-14T07:22:03.413Z,20.03
2019-02-14T07:27:26.644Z,19.13
2019-02-14T07:29:56.134Z,14.40
2019-02-14T07:32:25.613Z,16.97
2019-02-14T07:34:55.105Z,18.60
2019-02-14T07:37:26.901Z,16.47
2019-02-14T07:39:56.004Z,22.43
2019-02-14T07:42:44.838Z,16.63
2019-02-14T07:45:14.558Z,21.83
2019-02-14T07:47:44.103Z,19.57
2019-02-14T07:50:13.795Z,17.90
2019-02-14T07:52:43.281Z,20.60
2019-02-14T07:57:52.813Z,21.90
2019-02-14T08:00:23.221Z,29.50
2019-02-14T08:02:53.250Z,25.30
2019-02-14T08:05:23.324Z,18.55
2019-02-14T08:07:53.231Z,25.53
2019-02-14T08:10:42.291Z,27.32
2019-02-14T08:13:11.779Z,18.53
2019-02-14T08:15:41.264Z,21.33
2019-02-14T08:18:10.755Z,15.13
2019-02-14T08:20:41.879Z,20.47
2019-02-14T08:23:11.361Z,24.70
2019-02-14T08:25:40.964Z,20.30
2019-02-14T08:28:10.444Z,27.47
2019-02-14T08:30:39.926Z,21.07
2019-02-14T08:33:09.454Z,24.53
2019-02-14T08:35:38.953Z,22.22
2019-02-14T08:38:08.425Z,18.40
2019-02-14T08:40:38.327Z,26.55
2019-02-14T08:43:08.277Z,19.95
2019-02-14T08:45:38.307Z,22.00
2019-02-14T08:48:27.563Z,20.12
2019-02-14T08:50:57.056Z,20.63
2019-02-14T08:54:04.666Z,24.10
2019-02-14T08:56:34.374Z,24.30
2019-02-14T08:59:15.763Z,20.57
2019-02-14T09:01:45.266Z,23.53
2019-02-14T09:04:14.783Z,26.10
2019-02-14T09:06:44.286Z,20.80
2019-02-14T09:09:13.805Z,24.70
2019-02-14T09:11:43.286Z,26.37
2019-02-14T09:14:12.775Z,23.37
2019-02-14T09:16:42.251Z,27.62
2019-02-14T09:19:11.754Z,25.73
2019-02-14T09:21:41.235Z,29.70
2019-02-14T09:24:10.750Z,24.40
2019-02-14T09:26:59.565Z,28.87
2019-02-14T09:29:29.044Z,24.47
2019-02-14T09:31:58.515Z,25.23
2019-02-14T09:34:28.055Z,27.50
2019-02-14T09:36:57.524Z,28.90
2019-02-14T09:39:27.027Z,20.10
2019-02-14T09:41:56.499Z,22.80
2019-02-14T09:44:25.988Z,21.03
2019-02-14T09:46:55.469Z,24.35
2019-02-14T09:49:24.961Z,27.73
2019-02-14T09:51:54.472Z,25.37
2019-02-14T09:54:23.980Z,17.13
2019-02-14T09:56:53.455Z,23.62
2019-02-14T09:59:22.942Z,20.37
2019-02-14T10:01:52.509Z,16.73
2019-02-14T10:04:22.009Z,16.33
2019-02-14T10:06:51.526Z,20.25
2019-02-14T10:09:21.005Z,18.13
2019-02-14T10:12:09.532Z,18.40
2019-02-14T10:14:39.709Z,25.35
2019-02-14T10:17:09.732Z,15.35
2019-02-14T10:19:39.763Z,15.72
2019-02-14T10:22:09.775Z,12.33
2019-02-14T10:24:52.704Z,13.75
2019-02-14T10:27:22.150Z,13.27
2019-02-14T10:29:51.844Z,10.75
2019-02-14T10:32:21.319Z,11.60
2019-02-14T10:34:52.460Z,12.00
2019-02-14T10:37:21.980Z,8.70
2019-02-14T10:40:11.600Z,11.93
2019-02-14T10:42:41.167Z,10.17
2019-02-14T10:45:12.973Z,11.08
2019-02-14T10:47:42.465Z,9.00
2019-02-14T10:50:12.032Z,12.50
2019-02-14T10:53:00.586Z,12.93
2019-02-14T10:55:30.353Z,15.20
2019-02-14T10:57:59.827Z,9.07
2019-02-14T11:00:34.688Z,12.33
2019-02-14T11:03:04.219Z,12.57
2019-02-14T11:05:45.406Z,7.30
2019-02-14T11:08:14.949Z,10.93
2019-02-14T11:10:44.501Z,12.57
2019-02-14T11:13:33.267Z,8.50
2019-02-14T11:16:02.831Z,7.50
2019-02-14T11:18:51.497Z,7.30
2019-02-14T11:21:33.172Z,10.30
2019-02-14T11:24:02.817Z,10.80
2019-02-14T11:26:32.281Z,6.77
2019-02-14T11:32:04.443Z,12.37
2019-02-14T11:34:33.917Z,8.25
2019-02-14T11:37:05.064Z,8.30
2019-02-14T11:39:34.653Z,10.00
2019-02-14T11:42:23.410Z,5.20
2019-02-14T11:45:13.870Z,4.05
2019-02-14T11:50:38.044Z,6.07
2019-02-14T11:53:13.944Z,4.27
2019-02-14T11:55:57.840Z,6.23
2019-02-14T11:58:27.326Z,5.53
2019-02-14T12:00:56.803Z,4.67
2019-02-14T12:03:26.265Z,4.40
2019-02-14T12:05:55.768Z,6.03
2019-02-14T12:08:25.323Z,7.25
2019-02-14T12:10:54.787Z,2.93
2019-02-14T12:13:24.301Z,4.65
2019-02-14T12:15:53.776Z,3.10
2019-02-14T12:18:24.145Z,4.45
2019-02-14T12:20:59.759Z,3.33
2019-02-14T12:23:35.056Z,4.73
2019-02-14T12:26:05.783Z,6.20
2019-02-14T12:28:35.310Z,5.05
2019-02-14T12:31:04.804Z,4.43
2019-02-14T12:33:34.279Z,7.67
2019-02-14T12:36:15.846Z,7.87
2019-02-14T12:38:45.391Z,4.70
2019-02-14T12:41:14.865Z,7.73
2019-02-14T12:43:44.342Z,5.87
2019-02-14T12:46:13.900Z,7.17
2019-02-14T12:48:43.363Z,7.83
2019-02-14T12:54:07.062Z,8.10
2019-02-14T12:56:36.549Z,11.45
2019-02-14T12:59:06.040Z,8.30
2019-02-14T13:01:35.573Z,8.20
2019-02-14T13:04:05.138Z,5.57
2019-02-14T13:06:34.654Z,6.62
2019-02-14T13:09:44.277Z,8.10
2019-02-14T13:12:13.779Z,7.73
2019-02-14T13:14:55.779Z,7.57
2019-02-14T13:17:25.290Z,6.40
2019-02-14T13:19:56.837Z,6.53
2019-02-14T13:22:31.161Z,8.10
2019-02-14T13:28:15.130Z,6.27
2019-02-14T13:30:44.646Z,4.70
2019-02-14T13:33:14.113Z,4.70
2019-02-14T13:35:43.615Z,4.33
2019-02-14T13:38:13.208Z,6.67
2019-02-14T13:40:42.699Z,7.85
2019-02-14T13:43:12.226Z,4.80
2019-02-14T13:48:54.461Z,4.63
2019-02-14T13:51:23.950Z,5.07
2019-02-14T13:53:53.534Z,4.47
2019-02-14T13:56:23.035Z,6.53
2019-02-14T13:58:52.516Z,5.33
2019-02-14T14:01:22.007Z,3.27
2019-02-14T14:03:51.542Z,4.60
2019-02-14T14:06:21.028Z,4.53
2019-02-14T14:09:09.841Z,3.10
2019-02-14T14:11:39.451Z,7.17
2019-02-14T14:14:08.956Z,3.80
2019-02-14T14:16:38.447Z,3.17
2019-02-14T14:19:07.923Z,4.22
2019-02-14T14:21:37.537Z,2.57
2019-02-14T14:24:07.068Z,3.05
2019-02-14T14:26:36.571Z,2.60
2019-02-14T14:29:06.051Z,3.20
2019-02-14T14:31:35.560Z,4.43
2019-02-14T14:34:05.056Z,4.60
2019-02-14T14:36:34.559Z,3.87
2019-02-14T14:43:06.067Z,4.13
2019-02-14T14:46:14.421Z,2.97
2019-02-14T14:49:03.247Z,3.53
2019-02-14T14:51:32.740Z,3.53
2019-02-14T14:54:02.216Z,4.63
2019-02-14T14:56:31.823Z,3.50
2019-02-14T14:59:01.825Z,6.97
2019-02-14T15:04:16.038Z,7.53
2019-02-14T15:06:45.530Z,7.80
2019-02-14T15:09:15.058Z,4.17
2019-02-14T15:11:44.574Z,5.80
2019-02-14T15:14:14.054Z,18.80
2019-02-14T15:16:43.576Z,6.12
2019-02-14T15:19:13.069Z,9.43
2019-02-14T15:21:43.038Z,6.63
2019-02-14T15:24:12.545Z,10.80
2019-02-14T15:26:42.847Z,10.15
2019-02-14T15:29:25.002Z,17.00
2019-02-14T15:31:54.473Z,15.05
2019-02-14T15:34:23.980Z,10.88
2019-02-14T15:36:53.514Z,12.40
2019-02-14T15:42:04.565Z,13.00
2019-02-14T15:44:34.053Z,6.17
2019-02-14T15:47:15.555Z,8.07
2019-02-14T15:49:46.947Z,5.80
2019-02-14T15:52:21.774Z,7.47
2019-02-14T15:54:51.258Z,5.72
2019-02-14T15:57:20.801Z,7.90
2019-02-14T15:59:50.276Z,5.93
2019-02-14T16:02:19.765Z,6.17
2019-02-14T16:04:50.674Z,13.40
2019-02-14T16:07:26.038Z,9.77
2019-02-14T16:10:05.434Z,8.60
2019-02-14T16:12:37.877Z,6.07
2019-02-14T16:15:09.108Z,5.10
2019-02-14T16:17:48.098Z,6.30
2019-02-14T16:23:31.952Z,5.17
2019-02-14T16:26:12.948Z,5.10
2019-02-14T16:28:47.786Z,8.40
2019-02-14T16:31:17.278Z,8.23
2019-02-14T16:33:46.825Z,7.85
2019-02-14T16:36:16.388Z,14.13
2019-02-14T16:38:45.848Z,7.40
2019-02-14T16:41:15.315Z,6.53
2019-02-14T16:43:44.884Z,6.53
2019-02-14T16:46:14.424Z,5.73
2019-02-14T16:48:44.119Z,5.17
2019-02-14T16:51:14.023Z,6.78
2019-02-14T16:53:44.065Z,5.30
2019-02-14T16:56:14.132Z,4.17
2019-02-14T16:58:44.098Z,3.87
2019-02-14T17:01:14.212Z,5.37
2019-02-14T17:03:44.059Z,4.05
2019-02-14T17:06:14.092Z,6.00
2019-02-14T17:11:38.501Z,3.20
2019-02-14T17:14:08.009Z,8.57
2019-02-14T17:16:37.484Z,3.60
2019-02-14T17:19:06.993Z,4.07
2019-02-14T17:21:36.487Z,9.03
2019-02-14T17:24:05.969Z,4.30
2019-02-14T17:26:35.484Z,2.63
2019-02-14T17:29:04.974Z,7.50
2019-02-14T17:31:34.484Z,2.70
2019-02-14T17:34:03.948Z,4.97
2019-02-14T17:36:33.450Z,6.03
2019-02-14T17:39:03.002Z,3.80
2019-02-14T17:41:34.674Z,4.05
2019-02-14T17:44:04.134Z,5.37
2019-02-14T17:46:33.630Z,3.43
2019-02-14T17:49:03.103Z,5.78
2019-02-14T17:51:32.602Z,3.90
2019-02-14T18:00:06.004Z,5.27
2019-02-14T18:02:35.863Z,4.73
2019-02-14T18:05:27.041Z,7.77
2019-02-14T18:08:08.847Z,5.50
2019-02-14T18:10:38.347Z,8.70
2019-02-14T18:13:07.937Z,4.67
2019-02-14T18:15:37.430Z,3.40
2019-02-14T18:18:06.933Z,5.63
2019-02-14T18:20:36.437Z,4.45
2019-02-14T18:26:00.360Z,4.53
2019-02-14T18:28:29.935Z,3.80
2019-02-14T18:33:42.388Z,4.80
2019-02-14T18:36:11.867Z,8.13
2019-02-14T18:38:41.488Z,6.72
2019-02-14T18:41:11.087Z,5.20
2019-02-14T18:43:41.174Z,4.75
2019-02-14T18:46:11.323Z,5.22
2019-02-14T18:48:41.394Z,3.92
2019-02-14T18:51:30.169Z,3.90
2019-02-14T18:53:59.651Z,6.37
2019-02-14T18:56:29.139Z,4.07
2019-02-14T18:58:58.668Z,3.83
2019-02-14T19:01:28.124Z,5.93
2019-02-14T19:03:57.629Z,4.90
2019-02-14T19:06:27.176Z,4.90
2019-02-14T19:08:56.726Z,4.23
2019-02-14T19:11:26.194Z,3.25
2019-02-14T19:14:15.016Z,5.53
2019-02-14T19:16:44.512Z,4.93
2019-02-14T19:22:08.518Z,6.87
2019-02-14T19:24:38.009Z,4.33
2019-02-14T19:27:07.699Z,6.45
2019-02-14T19:29:37.202Z,9.63
2019-02-14T19:32:06.686Z,9.30
2019-02-14T19:34:36.832Z,4.65
2019-02-14T19:37:06.893Z,4.60
2019-02-14T19:39:37.075Z,5.67
2019-02-14T19:42:06.998Z,7.83
2019-02-14T19:44:37.030Z,6.53
2019-02-14T19:47:07.053Z,5.53
2019-02-14T19:49:37.036Z,4.05
2019-02-14T19:52:07.062Z,6.55
2019-02-14T19:54:37.285Z,6.12
2019-02-14T19:57:06.995Z,6.73
2019-02-14T19:59:37.112Z,8.25
2019-02-14T20:05:16.493Z,9.90
2019-02-14T20:07:45.960Z,5.67
2019-02-14T20:13:11.161Z,8.10
2019-02-14T20:15:59.900Z,7.60
2019-02-14T20:18:35.377Z,6.57
2019-02-14T20:21:04.853Z,6.23
2019-02-14T20:23:36.045Z,7.33
2019-02-14T20:26:05.507Z,8.73
2019-02-14T20:28:35.066Z,6.85
2019-02-14T20:31:04.517Z,5.50
2019-02-14T20:36:15.311Z,6.22
2019-02-14T20:38:44.800Z,8.37
2019-02-14T20:41:14.271Z,5.93
2019-02-14T20:43:43.839Z,7.08
2019-02-14T20:46:14.999Z,8.37
2019-02-14T20:48:44.484Z,8.43
2019-02-14T20:51:14.069Z,9.80
2019-02-14T20:53:43.559Z,7.90
2019-02-14T20:56:13.055Z,9.63
2019-02-14T20:58:42.538Z,8.90
2019-02-14T21:01:12.072Z,10.53
2019-02-14T21:03:41.597Z,5.90
2019-02-14T21:06:11.084Z,7.30
2019-02-14T21:08:40.551Z,6.23
2019-02-14T21:11:10.045Z,11.50
2019-02-14T21:13:39.854Z,7.22
2019-02-14T21:16:10.015Z,7.58
2019-02-14T21:21:28.511Z,6.87
2019-02-14T21:23:58.094Z,7.13
2019-02-14T21:26:27.613Z,4.97
2019-02-14T21:28:57.070Z,11.50
2019-02-14T21:31:26.551Z,9.60
2019-02-14T21:33:56.062Z,9.37
2019-02-14T21:36:25.697Z,8.07
2019-02-14T21:38:55.141Z,7.70
2019-02-14T21:41:24.660Z,7.07
2019-02-14T21:43:54.236Z,8.97
2019-02-14T21:46:35.944Z,6.93
2019-02-14T21:49:05.449Z,5.60
2019-02-14T21:51:36.555Z,9.80
2019-02-14T21:54:06.056Z,9.65
2019-02-14T21:56:35.521Z,7.47
2019-02-14T21:59:05.096Z,9.80
2019-02-14T22:01:34.647Z,9.13
2019-02-14T22:04:04.118Z,9.43
2019-02-14T22:06:33.672Z,8.93
2019-02-14T22:09:04.416Z,7.27
2019-02-14T22:11:35.524Z,4.97
2019-02-14T22:14:05.358Z,6.30
2019-02-14T22:16:34.964Z,7.80
2019-02-14T22:19:04.506Z,7.10
2019-02-14T22:21:34.004Z,9.20
2019-02-14T22:24:03.548Z,8.00
2019-02-14T22:26:33.741Z,8.30
2019-02-14T22:29:13.170Z,6.10
2019-02-14T22:31:42.700Z,8.23
2019-02-14T22:34:12.176Z,6.20
2019-02-14T22:36:41.659Z,7.30
2019-02-14T22:39:11.116Z,7.10
2019-02-14T22:41:43.301Z,7.43
2019-02-14T22:44:32.502Z,5.50
2019-02-14T22:47:01.983Z,5.20
2019-02-14T22:49:31.471Z,8.93
2019-02-14T22:54:55.378Z,7.30
2019-02-14T22:57:24.912Z,8.03
2019-02-14T22:59:54.388Z,7.50
2019-02-14T23:02:23.868Z,7.07
2019-02-14T23:04:53.334Z,4.50
2019-02-14T23:07:22.855Z,9.53
2019-02-14T23:09:52.315Z,6.63
2019-02-14T23:12:21.825Z,4.95
2019-02-14T23:14:51.321Z,9.30
2019-02-14T23:17:20.797Z,5.40
2019-02-14T23:19:50.265Z,4.47
2019-02-14T23:22:19.736Z,6.77
2019-02-14T23:24:49.214Z,10.73
2019-02-14T23:27:18.704Z,4.55
2019-02-14T23:30:08.142Z,5.80
2019-02-14T23:32:37.630Z,5.93
2019-02-14T23:35:07.179Z,8.20
2019-02-14T23:37:55.974Z,7.17
2019-02-14T23:40:25.609Z,9.70
2019-02-14T23:42:55.113Z,6.63
2019-02-14T23:45:24.529Z,7.97
2019-02-14T23:47:54.013Z,6.57
2019-02-14T23:50:23.484Z,9.20
2019-02-14T23:52:53.014Z,8.33
2019-02-14T23:55:23.026Z,4.17
2019-02-14T23:57:53.043Z,7.80
